Time;durP1;ratioP1;P1;durP2;ratioP2;P2;SDS_P1;SDS_P2;PMS_P1;PMS_P2;Temp;Humidity;BMP_temperature;BMP_pressure;BME280_temperature;BME280_humidity;BME280_pressure;Samples;Min_cycle;Max_cycle;Signal;HPM_P1;HPM_P2
2022/10/30 00:00:41;;;;;;;24.27;13.15;;;15.20;99.90;;;;;;5107876;28;20412;-76
2022/10/30 00:03:11;;;;;;;23.45;12.65;;;;;;;;;;5092044;28;20950;-76
2022/10/30 00:05:40;;;;;;;26.77;12.85;;;;;;;;;;5102371;28;20495;-77
2022/10/30 00:08:06;;;;;;;23.60;12.90;;;;;;;;;;5110105;28;20454;-77
2022/10/30 00:10:32;;;;;;;26.98;12.50;;;;;;;;;;5109172;28;20412;-77
2022/10/30 00:12:58;;;;;;;23.55;12.85;;;;;;;;;;5075036;28;20420;-76
2022/10/30 00:15:24;;;;;;;25.83;12.65;;;;;;;;;;5092282;28;20404;-76
2022/10/30 00:17:50;;;;;;;22.98;12.55;;;;;;;;;;5109351;28;20423;-77
2022/10/30 00:20:16;;;;;;;21.43;13.17;;;;;;;;;;5091767;28;20969;-77
2022/10/30 00:22:42;;;;;;;25.73;13.27;;;;;;;;;;5093666;28;20436;-78
2022/10/30 00:25:08;;;;;;;23.02;12.50;;;15.30;99.90;;;;;;5092809;28;20440;-77
2022/10/30 00:27:34;;;;;;;23.40;13.00;;;;;;;;;;5090511;28;20514;-78
2022/10/30 00:30:00;;;;;;;24.08;12.32;;;;;;;;;;5092805;28;20412;-78
2022/10/30 00:32:30;;;;;;;22.98;12.60;;;;;;;;;;5110925;28;20406;-78
2022/10/30 00:34:56;;;;;;;30.70;12.65;;;;;;;;;;5107879;28;20444;-77
2022/10/30 00:37:22;;;;;;;23.08;12.52;;;;;;;;;;5109367;28;20420;-77
2022/10/30 00:39:48;;;;;;;26.48;13.27;;;;;;;;;;5108317;28;20511;-77
2022/10/30 00:42:15;;;;;;;24.13;12.52;;;14.90;99.90;;;;;;5109632;28;20769;-77
2022/10/30 00:44:44;;;;;;;22.63;12.98;;;;;;;;;;5092359;28;20904;-77
2022/10/30 00:47:14;;;;;;;22.52;13.05;;;14.90;99.90;;;;;;5092279;28;20412;-77
2022/10/30 00:49:49;;;;;;;26.83;12.57;;;;;;;;;;5109521;28;20428;-77
2022/10/30 00:52:15;;;;;;;24.45;13.23;;;;;;;;;;5090185;28;20417;-78
2022/10/30 00:54:41;;;;;;;21.40;12.60;;;;;;;;;;5093310;28;20400;-77
2022/10/30 00:57:07;;;;;;;23.75;12.98;;;;;;;;;;5108843;28;20472;-76
2022/10/30 00:59:35;;;;;;;26.05;13.30;;;14.60;99.90;;;;;;5073180;28;20420;-77
2022/10/30 01:02:02;;;;;;;25.02;12.57;;;;;;;;;;5104248;28;20426;-76
2022/10/30 01:04:34;;;;;;;21.67;13.02;;;;;;;;;;5090243;28;20922;-76
2022/10/30 01:07:05;;;;;;;22.80;12.80;;;;;;;;;;5107995;28;20420;-77
2022/10/30 01:09:31;;;;;;;24.58;13.43;;;;;;;;;;5093523;28;20421;-77
2022/10/30 01:11:57;;;;;;;26.92;13.65;;;;;;;;;;5109110;28;20435;-77
2022/10/30 01:14:24;;;;;;;21.85;12.50;;;;;;;;;;5093561;28;20405;-76
2022/10/30 01:17:05;;;;;;;22.13;12.90;;;;;;;;;;5108359;28;20439;-77
2022/10/30 01:19:58;;;;;;;21.05;12.38;;;14.70;99.90;;;;;;5108910;28;20510;-76
2022/10/30 01:22:30;;;;;;;24.63;12.45;;;;;;;;;;5108500;28;20427;-76
2022/10/30 01:25:05;;;;;;;23.90;13.65;;;;;;;;;;5095691;28;20876;-76
2022/10/30 01:27:38;;;;;;;23.27;12.80;;;;;;;;;;5095852;28;20420;-76
2022/10/30 01:30:25;;;;;;;24.83;12.43;;;;;;;;;;5112478;28;20412;-76
2022/10/30 01:32:57;;;;;;;26.80;13.00;;;;;;;;;;5112832;28;20423;-76
2022/10/30 01:35:23;;;;;;;22.55;13.20;;;;;;;;;;5094191;28;20508;-76
2022/10/30 01:38:07;;;;;;;24.80;13.70;;;;;;;;;;5095787;28;20507;-76
2022/10/30 01:40:33;;;;;;;19.60;12.15;;;;;;;;;;5112638;28;20951;-77
2022/10/30 01:43:00;;;;;;;23.20;12.82;;;;;;;;;;5112305;28;20416;-75
2022/10/30 01:45:26;;;;;;;24.20;12.70;;;;;;;;;;5112124;28;20446;-76
2022/10/30 01:48:00;;;;;;;24.85;13.48;;;14.50;99.90;;;;;;5110138;28;20430;-75
2022/10/30 01:50:53;;;;;;;23.75;12.57;;;14.60;99.90;;;;;;5111944;28;20484;-76
2022/10/30 01:53:32;;;;;;;24.58;12.93;;;;;;;;;;5111291;28;20445;-76
2022/10/30 01:56:28;;;;;;;24.98;13.93;;;14.60;99.90;;;;;;5113702;28;20911;-76
2022/10/30 01:59:12;;;;;;;25.50;12.80;;;;;;;;;;5110813;28;20808;-76
2022/10/30 02:01:39;;;;;;;24.80;12.90;;;;;;;;;;5094424;28;20412;-76
2022/10/30 02:04:07;;;;;;;26.90;12.87;;;14.40;99.90;;;;;;5095466;28;20408;-77
2022/10/30 02:06:34;;;;;;;27.47;13.83;;;;;;;;;;5111697;28;20923;-77
2022/10/30 02:09:00;;;;;;;22.05;12.77;;;;;;;;;;5112134;28;20416;-77
2022/10/30 02:11:27;;;;;;;24.60;14.20;;;;;;;;;;5111496;28;20444;-77
2022/10/30 02:13:55;;;;;;;26.00;15.18;;;;;;;;;;5111326;28;20420;-77
2022/10/30 02:16:22;;;;;;;26.48;15.73;;;;;;;;;;5111923;28;20459;-76
2022/10/30 02:18:48;;;;;;;29.65;15.80;;;;;;;;;;5110997;28;20492;-77
2022/10/30 02:21:14;;;;;;;28.23;16.58;;;;;;;;;;5126717;27;20419;-77
2022/10/30 02:23:40;;;;;;;30.95;14.90;;;14.30;99.90;;;;;;5111484;28;20420;-76
2022/10/30 02:26:06;;;;;;;27.35;14.75;;;14.30;99.90;;;;;;5095320;28;20432;-77
2022/10/30 02:28:31;;;;;;;27.13;15.48;;;14.20;99.90;;;;;;5109945;28;20500;-77
2022/10/30 02:30:57;;;;;;;31.17;16.77;;;;;;;;;;5111427;28;20915;-77
2022/10/30 02:33:24;;;;;;;28.33;14.93;;;;;;;;;;5093510;28;20795;-77
2022/10/30 02:35:50;;;;;;;26.43;14.33;;;;;;;;;;5105471;28;20425;-77
2022/10/30 02:38:17;;;;;;;28.33;14.32;;;;;;;;;;5083247;28;20408;-77
2022/10/30 02:40:43;;;;;;;25.38;14.23;;;;;;;;;;5094929;28;20419;-76
2022/10/30 02:43:09;;;;;;;27.80;14.50;;;;;;;;;;5093546;28;20495;-77
2022/10/30 02:45:35;;;;;;;25.80;14.07;;;;;;;;;;5109986;28;20417;-77
2022/10/30 02:48:03;;;;;;;23.75;13.40;;;;;;;;;;5082527;28;20490;-76
2022/10/30 02:50:29;;;;;;;20.23;13.55;;;;;;;;;;5055913;28;20521;-78
2022/10/30 02:53:00;;;;;;;27.20;13.25;;;;;;;;;;5088309;28;20516;-77
2022/10/30 02:55:26;;;;;;;23.37;13.90;;;;;;;;;;5073087;28;20935;-77
2022/10/30 02:57:53;;;;;;;23.10;13.77;;;;;;;;;;5073279;28;20921;-77
2022/10/30 03:00:19;;;;;;;30.30;14.50;;;13.90;99.90;;;;;;5070783;28;20415;-77
2022/10/30 03:02:45;;;;;;;25.20;13.77;;;;;;;;;;5071406;28;20918;-77
2022/10/30 03:05:11;;;;;;;22.50;14.50;;;;;;;;;;5073651;28;20414;-77
2022/10/30 03:07:37;;;;;;;26.85;14.13;;;;;;;;;;5090720;28;20418;-76
2022/10/30 03:10:03;;;;;;;22.50;13.48;;;;;;;;;;5089334;28;20438;-76
2022/10/30 03:12:29;;;;;;;28.13;14.40;;;;;;;;;;5089600;28;20781;-75
2022/10/30 03:14:55;;;;;;;25.60;13.90;;;14.10;99.90;;;;;;5073172;28;20504;-76
2022/10/30 03:17:21;;;;;;;26.90;14.60;;;;;;;;;;5073382;28;20493;-76
2022/10/30 03:19:46;;;;;;;27.83;14.63;;;14.20;99.90;;;;;;5071258;28;20422;-77
2022/10/30 03:22:13;;;;;;;26.97;14.03;;;;;;;;;;5090220;28;20447;-78
2022/10/30 03:24:39;;;;;;;26.20;14.67;;;;;;;;;;5089515;28;20451;-77
2022/10/30 03:27:05;;;;;;;25.20;14.00;;;;;;;;;;5073274;28;20474;-78
2022/10/30 03:29:31;;;;;;;26.05;14.65;;;;;;;;;;5090296;28;20582;-77
2022/10/30 03:31:57;;;;;;;26.15;14.55;;;;;;;;;;5071987;28;20422;-77
2022/10/30 03:34:23;;;;;;;26.90;14.10;;;;;;;;;;5071043;28;20422;-77
2022/10/30 03:36:49;;;;;;;29.15;13.70;;;;;;;;;;5090224;28;20509;-76
2022/10/30 03:39:15;;;;;;;24.42;14.38;;;;;;;;;;5073096;28;20418;-77
2022/10/30 03:41:42;;;;;;;25.33;14.63;;;;;;;;;;5090851;28;20406;-77
2022/10/30 03:44:08;;;;;;;24.90;14.45;;;;;;;;;;5055542;28;20536;-78
2022/10/30 03:46:34;;;;;;;26.58;14.30;;;;;;;;;;5089782;28;20946;-77
2022/10/30 03:49:01;;;;;;;31.60;15.25;;;;;;;;;;5089907;28;20424;-77
2022/10/30 03:51:29;;;;;;;29.38;14.55;;;;;;;;;;5092716;28;20455;-77
2022/10/30 03:53:55;;;;;;;27.98;14.40;;;;;;;;;;5092743;28;20396;-77
2022/10/30 03:56:21;;;;;;;28.75;14.55;;;14.00;99.90;;;;;;5110939;28;20400;-77
2022/10/30 03:58:47;;;;;;;25.27;14.13;;;;;;;;;;5092267;28;20431;-77
2022/10/30 04:01:14;;;;;;;25.85;14.82;;;;;;;;;;5074632;28;20418;-76
2022/10/30 04:03:40;;;;;;;26.80;14.27;;;;;;;;;;5109383;28;20427;-77
2022/10/30 04:06:06;;;;;;;26.58;14.68;;;14.00;99.90;;;;;;5093046;28;20769;-77
2022/10/30 04:08:32;;;;;;;29.88;15.00;;;14.10;99.90;;;;;;5093813;28;20483;-78
2022/10/30 04:10:58;;;;;;;24.25;14.10;;;;;;;;;;5090911;28;20504;-77
2022/10/30 04:13:24;;;;;;;26.90;14.57;;;13.70;99.90;;;;;;5109361;28;20424;-77
2022/10/30 04:15:50;;;;;;;25.53;14.87;;;;;;;;;;5085757;28;20412;-77
2022/10/30 04:18:17;;;;;;;24.05;14.43;;;;;;;;;;5108685;28;20434;-77
2022/10/30 04:20:44;;;;;;;28.03;15.47;;;13.80;99.90;;;;;;5091924;28;20438;-77
2022/10/30 04:23:13;;;;;;;26.53;15.27;;;13.90;99.90;;;;;;5075588;28;20451;-77
2022/10/30 04:25:40;;;;;;;26.93;15.67;;;;;;;;;;5090633;28;21059;-76
2022/10/30 04:28:06;;;;;;;29.60;15.60;;;;;;;;;;5110578;28;20452;-78
2022/10/30 04:30:34;;;;;;;27.30;15.50;;;;;;;;;;5082618;28;20549;-78
2022/10/30 04:33:01;;;;;;;29.15;15.35;;;13.90;99.90;;;;;;5109716;28;20423;-77
2022/10/30 04:35:30;;;;;;;27.33;15.23;;;13.80;99.90;;;;;;5091170;28;20423;-76
2022/10/30 04:37:58;;;;;;;26.33;15.75;;;13.90;99.90;;;;;;5111793;28;20403;-77
2022/10/30 04:40:26;;;;;;;28.45;15.70;;;13.50;99.90;;;;;;5091993;28;20756;-77
2022/10/30 04:42:52;;;;;;;27.98;16.20;;;;;;;;;;5106925;28;20749;-77
2022/10/30 04:45:20;;;;;;;27.25;16.02;;;;;;;;;;5076839;28;20420;-77
2022/10/30 04:47:47;;;;;;;28.55;16.48;;;;;;;;;;5110033;28;20985;-77
2022/10/30 04:50:13;;;;;;;26.58;16.33;;;13.60;99.90;;;;;;5107707;28;20428;-78
2022/10/30 04:52:39;;;;;;;28.35;16.45;;;;;;;;;;5109620;28;20420;-76
2022/10/30 04:55:06;;;;;;;29.93;16.70;;;;;;;;;;5090903;28;20511;-75
2022/10/30 04:57:33;;;;;;;30.38;17.13;;;;;;;;;;5090858;28;20448;-76
2022/10/30 04:59:59;;;;;;;28.08;16.55;;;;;;;;;;5112855;28;20428;-76
2022/10/30 05:02:25;;;;;;;33.42;17.80;;;;;;;;;;5112994;28;20412;-76
2022/10/30 05:04:51;;;;;;;29.95;16.30;;;;;;;;;;5095542;28;20431;-76
2022/10/30 05:07:17;;;;;;;31.77;17.25;;;13.50;99.90;;;;;;5112010;28;20450;-77
2022/10/30 05:09:43;;;;;;;32.47;18.03;;;;;;;;;;5113285;28;20439;-77
2022/10/30 05:12:12;;;;;;;32.10;17.50;;;;;;;;;;5094786;28;20424;-76
2022/10/30 05:14:38;;;;;;;31.58;17.63;;;;;;;;;;5096209;28;20448;-76
2022/10/30 05:17:04;;;;;;;31.05;17.73;;;13.30;99.90;;;;;;5094887;28;20416;-76
2022/10/30 05:19:30;;;;;;;29.77;17.83;;;;;;;;;;5078292;28;20432;-76
2022/10/30 05:21:56;;;;;;;28.90;17.63;;;;;;;;;;5090242;28;20416;-76
2022/10/30 05:24:22;;;;;;;31.10;17.45;;;;;;;;;;5113656;28;20400;-77
2022/10/30 05:26:48;;;;;;;32.75;18.30;;;;;;;;;;5091798;28;20431;-77
2022/10/30 05:29:14;;;;;;;29.05;17.63;;;;;;;;;;5092915;28;20416;-76
2022/10/30 05:31:40;;;;;;;32.55;17.55;;;;;;;;;;5108185;28;20420;-76
2022/10/30 05:34:06;;;;;;;33.15;17.38;;;;;;;;;;5113337;28;20396;-75
2022/10/30 05:36:32;;;;;;;29.60;17.42;;;;;;;;;;5093517;28;20420;-76
2022/10/30 05:38:58;;;;;;;30.67;17.38;;;;;;;;;;5112217;28;20444;-75
2022/10/30 05:41:24;;;;;;;33.85;18.30;;;;;;;;;;5093670;28;20416;-75
2022/10/30 05:43:50;;;;;;;30.02;17.42;;;;;;;;;;5074575;28;20451;-75
2022/10/30 05:46:16;;;;;;;30.70;17.50;;;;;;;;;;5077763;28;20505;-76
2022/10/30 05:48:42;;;;;;;28.27;17.40;;;;;;;;;;5094524;28;20421;-75
2022/10/30 05:51:09;;;;;;;31.08;17.98;;;;;;;;;;5077733;28;20413;-76
2022/10/30 05:53:35;;;;;;;32.85;18.35;;;;;;;;;;5094891;28;20422;-76
2022/10/30 05:56:00;;;;;;;29.20;17.63;;;12.80;99.90;;;;;;5111089;28;20423;-77
2022/10/30 05:58:26;;;;;;;30.83;17.57;;;;;;;;;;5095162;28;20408;-76
2022/10/30 06:00:52;;;;;;;29.25;17.55;;;;;;;;;;5096105;28;20963;-76
2022/10/30 06:03:18;;;;;;;32.53;18.63;;;;;;;;;;5112452;28;20816;-75
2022/10/30 06:05:45;;;;;;;33.30;18.38;;;12.90;99.90;;;;;;5092171;28;20551;-76
2022/10/30 06:08:11;;;;;;;33.70;18.23;;;;;;;;;;5110071;28;20416;-76
2022/10/30 06:10:38;;;;;;;32.08;18.33;;;;;;;;;;5111250;28;20810;-76
2022/10/30 06:13:05;;;;;;;33.07;18.77;;;12.70;99.90;;;;;;5094663;28;20423;-76
2022/10/30 06:15:32;;;;;;;37.63;18.67;;;;;;;;;;5112394;28;20498;-76
2022/10/30 06:17:58;;;;;;;33.88;17.92;;;;;;;;;;5092578;28;20424;-78
2022/10/30 06:20:26;;;;;;;33.45;19.58;;;;;;;;;;5095353;28;20416;-77
2022/10/30 06:23:03;;;;;;;35.20;19.10;;;12.30;99.90;;;;;;5110604;28;20412;-77
2022/10/30 06:25:31;;;;;;;33.15;19.35;;;12.70;99.90;;;;;;5112781;28;20403;-77
2022/10/30 06:27:57;;;;;;;33.47;19.83;;;;;;;;;;5093138;28;20424;-77
2022/10/30 06:30:24;;;;;;;36.03;19.17;;;;;;;;;;5109990;28;20420;-78
2022/10/30 06:32:56;;;;;;;34.97;20.55;;;12.70;99.90;;;;;;5110718;28;20537;-77
2022/10/30 06:35:22;;;;;;;31.83;18.98;;;;;;;;;;5112905;28;20426;-77
2022/10/30 06:37:48;;;;;;;33.57;19.43;;;;;;;;;;5109515;28;20510;-77
2022/10/30 06:40:14;;;;;;;31.73;18.63;;;;;;;;;;5094789;28;20491;-77
2022/10/30 06:42:48;;;;;;;34.25;19.92;;;;;;;;;;5110614;28;20424;-77
2022/10/30 06:45:15;;;;;;;36.28;19.13;;;12.50;99.90;;;;;;5094598;28;20516;-77
2022/10/30 06:47:41;;;;;;;32.80;19.90;;;;;;;;;;5111060;28;20622;-77
2022/10/30 06:50:08;;;;;;;33.22;19.48;;;;;;;;;;5091272;28;20481;-77
2022/10/30 06:52:34;;;;;;;38.33;19.35;;;;;;;;;;5112368;28;20400;-77
2022/10/30 06:55:01;;;;;;;36.17;19.08;;;;;;;;;;5092178;28;20405;-77
2022/10/30 06:57:27;;;;;;;33.72;19.25;;;;;;;;;;5092912;28;20648;-78
2022/10/30 06:59:53;;;;;;;34.72;20.02;;;;;;;;;;5094881;28;20404;-77
2022/10/30 07:02:19;;;;;;;38.65;19.10;;;;;;;;;;5092810;28;20424;-78
2022/10/30 07:04:45;;;;;;;30.90;19.20;;;;;;;;;;5091688;28;20474;-78
2022/10/30 07:07:12;;;;;;;30.98;20.50;;;;;;;;;;5110283;28;20420;-79
2022/10/30 07:09:38;;;;;;;33.75;19.00;;;;;;;;;;5089681;28;20919;-78
2022/10/30 07:12:04;;;;;;;33.50;18.63;;;;;;;;;;5093682;28;20458;-78
2022/10/30 07:14:30;;;;;;;35.22;18.27;;;;;;;;;;5108670;28;20411;-77
2022/10/30 07:16:56;;;;;;;31.05;18.23;;;;;;;;;;5093887;28;20416;-78
2022/10/30 07:19:23;;;;;;;35.93;18.33;;;;;;;;;;5107932;28;20420;-79
2022/10/30 07:21:49;;;;;;;31.00;17.88;;;;;;;;;;5110049;28;20503;-78
2022/10/30 07:24:15;;;;;;;30.73;18.17;;;;;;;;;;5075631;28;20416;-78
2022/10/30 07:26:41;;;;;;;29.75;17.85;;;;;;;;;;5111571;28;20463;-78
2022/10/30 07:29:07;;;;;;;29.90;17.13;;;;;;;;;;5109051;28;20420;-76
2022/10/30 07:31:33;;;;;;;25.88;17.10;;;;;;;;;;5092902;28;20466;-79
2022/10/30 07:33:59;;;;;;;29.73;17.07;;;;;;;;;;5108559;28;20487;-78
2022/10/30 07:36:25;;;;;;;32.63;17.67;;;;;;;;;;5076491;28;20458;-78
2022/10/30 07:38:55;;;;;;;27.00;17.38;;;;;;;;;;5093611;28;20498;-77
2022/10/30 07:41:21;;;;;;;33.03;16.38;;;;;;;;;;5110051;28;20424;-78
2022/10/30 07:43:47;;;;;;;27.55;16.10;;;;;;;;;;5093249;28;20461;-78
2022/10/30 07:46:14;;;;;;;31.95;16.73;;;;;;;;;;5092471;28;20814;-79
2022/10/30 07:48:40;;;;;;;34.30;16.90;;;;;;;;;;5110274;28;20425;-79
2022/10/30 07:51:06;;;;;;;28.75;15.93;;;;;;;;;;5075104;28;20401;-77
2022/10/30 07:53:36;;;;;;;27.27;15.98;;;;;;;;;;5084403;28;20416;-80
2022/10/30 07:56:02;;;;;;;30.33;16.23;;;;;;;;;;5110332;28;20503;-79
2022/10/30 07:58:28;;;;;;;28.35;16.25;;;;;;;;;;5094424;28;20408;-79
2022/10/30 08:00:55;;;;;;;29.38;15.75;;;;;;;;;;5091184;28;20427;-79
2022/10/30 08:03:32;;;;;;;28.20;14.95;;;;;;;;;;5092316;28;20451;-76
2022/10/30 08:06:08;;;;;;;25.60;14.52;;;;;;;;;;5100415;28;21180;-77
2022/10/30 08:08:40;;;;;;;25.42;14.57;;;;;;;;;;5076139;28;20412;-78
2022/10/30 08:11:08;;;;;;;25.40;15.43;;;;;;;;;;5109093;28;20496;-78
2022/10/30 08:13:49;;;;;;;27.00;15.48;;;;;;;;;;5112026;28;20411;-77
2022/10/30 08:16:17;;;;;;;29.27;15.25;;;;;;;;;;5075180;28;20912;-80
2022/10/30 08:18:43;;;;;;;24.10;15.15;;;;;;;;;;5075465;28;20915;-78
2022/10/30 08:21:09;;;;;;;23.00;14.75;;;;;;;;;;5091989;28;20788;-79
2022/10/30 08:23:35;;;;;;;30.15;15.10;;;;;;;;;;5109572;28;20511;-78
2022/10/30 08:26:01;;;;;;;25.02;15.05;;;;;;;;;;5090410;28;20778;-78
2022/10/30 08:28:31;;;;;;;25.15;13.85;;;;;;;;;;5089272;28;20408;-78
2022/10/30 08:30:57;;;;;;;28.67;14.63;;;;;;;;;;5087481;28;20771;-78
2022/10/30 08:33:23;;;;;;;27.05;14.35;;;;;;;;;;5084994;28;20414;-79
2022/10/30 08:35:52;;;;;;;25.80;14.50;;;15.30;99.90;;;;;;5085442;28;20479;-78
2022/10/30 08:38:18;;;;;;;30.25;14.48;;;15.80;99.90;;;;;;5109135;28;20503;-75
2022/10/30 08:40:45;;;;;;;23.52;14.10;;;;;;;;;;5112841;28;20416;-78
2022/10/30 08:43:11;;;;;;;23.33;13.63;;;;;;;;;;5095288;28;20939;-77
2022/10/30 08:45:37;;;;;;;25.10;14.60;;;;;;;;;;5096153;28;20502;-78
2022/10/30 08:48:05;;;;;;;24.00;14.32;;;;;;;;;;5113488;28;20796;-77
2022/10/30 08:50:32;;;;;;;25.77;14.00;;;15.70;99.90;;;;;;5092678;28;20765;-77
2022/10/30 08:53:06;;;;;;;27.05;14.30;;;15.90;99.90;;;;;;5096216;28;20427;-77
2022/10/30 08:55:34;;;;;;;25.70;13.93;;;16.30;99.90;;;;;;5089980;28;20487;-77
2022/10/30 08:58:05;;;;;;;24.90;13.38;;;;;;;;;;5059240;28;20425;-78
2022/10/30 09:00:34;;;;;;;26.05;13.52;;;;;;;;;;5073791;28;20914;-78
2022/10/30 09:03:17;;;;;;;24.42;13.52;;;;;;;;;;5092479;28;20452;-77
2022/10/30 09:05:44;;;;;;;22.98;13.43;;;;;;;;;;5091007;28;20422;-77
2022/10/30 09:08:10;;;;;;;25.08;13.35;;;;;;;;;;5073300;28;20449;-78
2022/10/30 09:10:36;;;;;;;22.23;12.67;;;;;;;;;;5090967;28;20464;-77
2022/10/30 09:13:02;;;;;;;24.35;12.35;;;;;;;;;;5078667;28;20416;-78
2022/10/30 09:15:28;;;;;;;25.00;13.05;;;;;;;;;;5090555;28;20423;-78
2022/10/30 09:18:00;;;;;;;20.73;12.00;;;17.60;99.90;;;;;;5063500;28;20812;-78
2022/10/30 09:20:26;;;;;;;24.30;13.02;;;17.40;99.90;;;;;;5090195;28;20426;-78
2022/10/30 09:22:52;;;;;;;23.20;12.52;;;;;;;;;;5098423;28;20878;-80
2022/10/30 09:25:18;;;;;;;22.80;12.57;;;;;;;;;;5071621;28;20951;-81
2022/10/30 09:27:44;;;;;;;20.65;12.82;;;17.90;99.90;;;;;;5085929;28;20554;-81
2022/10/30 09:30:11;;;;;;;24.70;12.50;;;18.00;99.90;;;;;;5065352;28;20418;-81
2022/10/30 09:32:43;;;;;;;23.58;12.32;;;;;;;;;;5076993;28;20506;-82
2022/10/30 09:35:13;;;;;;;21.65;12.68;;;;;;;;;;5075264;28;20414;-82
2022/10/30 09:37:39;;;;;;;20.98;12.30;;;;;;;;;;5059597;28;21148;-81
2022/10/30 09:40:09;;;;;;;21.95;12.93;;;;;;;;;;5073879;28;20424;-80
2022/10/30 09:42:49;;;;;;;22.40;12.50;;;;;;;;;;5056498;28;20432;-81
2022/10/30 09:45:38;;;;;;;20.00;11.68;;;18.20;99.90;;;;;;5072044;28;20428;-81
2022/10/30 09:48:25;;;;;;;23.63;12.23;;;18.40;99.90;;;;;;5102335;28;20514;-84
2022/10/30 09:51:00;;;;;;;25.20;12.77;;;18.10;99.90;;;;;;5090619;28;20851;-82
2022/10/30 09:53:48;;;;;;;23.75;12.30;;;18.40;99.90;;;;;;5107786;28;20418;-82
2022/10/30 09:56:37;;;;;;;23.73;12.10;;;18.20;99.90;;;;;;5094807;28;20723;-82
2022/10/30 09:59:18;;;;;;;21.50;11.47;;;;;;;;;;5093565;28;20420;-81
2022/10/30 10:01:54;;;;;;;20.08;12.18;;;;;;;;;;5109577;28;20412;-80
2022/10/30 10:04:32;;;;;;;24.40;12.27;;;18.50;99.90;;;;;;5112941;28;20424;-82
2022/10/30 10:07:09;;;;;;;21.23;12.07;;;18.60;99.90;;;;;;5111085;28;20428;-81
2022/10/30 10:09:37;;;;;;;23.00;12.27;;;18.80;99.90;;;;;;5104854;28;20439;-81
2022/10/30 10:12:11;;;;;;;22.65;12.35;;;18.70;99.90;;;;;;5093549;28;20495;-82
2022/10/30 10:14:45;;;;;;;19.47;11.53;;;18.60;99.90;;;;;;5114402;28;20830;-81
2022/10/30 10:17:23;;;;;;;21.30;11.35;;;18.80;99.90;;;;;;5094384;28;20423;-81
2022/10/30 10:27:21;;;;;;;22.55;11.80;;;;;;;;;;5021951;28;20453;-82
2022/10/30 10:33:49;;;;;;;21.45;12.93;;;19.00;99.90;;;;;;5022065;28;20419;-80
2022/10/30 10:37:16;;;;;;;23.80;12.77;;;18.80;99.90;;;;;;5012629;28;20434;-81
2022/10/30 10:57:05;;;;;;;27.52;13.13;;;;;;;;;;4968944;28;20411;-81
2022/10/30 11:03:07;;;;;;;19.38;12.15;;;;;;;;;;4947605;28;20437;-80
2022/10/30 11:11:02;;;;;;;21.13;12.63;;;;;;;;;;5097612;28;20976;-80
2022/10/30 11:14:10;;;;;;;;;;;;;;;;;;;;;
2022/10/30 11:17:20;;;;;;;24.67;11.50;;;19.90;99.90;;;;;;5057770;28;20467;-80
2022/10/30 11:19:59;;;;;;;21.15;11.63;;;20.20;99.90;;;;;;5070871;28;20461;-79
2022/10/30 11:23:18;;;;;;;;;;;;;;;;;;;;;
2022/10/30 11:27:01;;;;;;;21.80;11.30;;;20.20;99.90;;;;;;5060712;28;20477;-80
2022/10/30 11:36:56;;;;;;;19.58;9.80;;;20.80;99.90;;;;;;4995054;28;20478;-79
2022/10/30 11:39:36;;;;;;;17.48;10.00;;;20.70;99.90;;;;;;4995684;28;20431;-80
2022/10/30 11:42:16;;;;;;;17.17;9.75;;;20.90;99.90;;;;;;5007454;28;20934;-79
2022/10/30 11:44:50;;;;;;;21.20;9.48;;;20.70;99.90;;;;;;5006842;28;20423;-79
2022/10/30 11:47:21;;;;;;;16.08;8.63;;;20.70;99.90;;;;;;4993988;28;20419;-78
2022/10/30 11:50:29;;;;;;;19.43;8.87;;;20.90;99.90;;;;;;5018852;28;20407;-81
2022/10/30 11:53:39;;;;;;;19.23;9.30;;;21.10;99.90;;;;;;4984821;28;20414;-80
2022/10/30 11:56:41;;;;;;;20.25;9.05;;;20.80;99.90;;;;;;5052546;28;20486;-77
2022/10/30 11:59:24;;;;;;;17.48;8.40;;;21.10;99.90;;;;;;5050048;28;20820;-79
2022/10/30 12:02:25;;;;;;;20.65;8.82;;;21.20;99.90;;;;;;5069709;28;20429;-80
2022/10/30 12:04:54;;;;;;;27.13;9.52;;;21.10;99.90;;;;;;4990906;28;20499;-79
2022/10/30 12:07:26;;;;;;;19.63;9.23;;;22.00;99.90;;;;;;5061345;28;20504;-79
2022/10/30 12:10:09;;;;;;;17.25;8.52;;;21.10;99.90;;;;;;5067685;28;20456;-80
2022/10/30 12:12:48;;;;;;;16.70;8.43;;;21.90;99.90;;;;;;5068042;28;20787;-77
2022/10/30 12:15:26;;;;;;;18.52;8.10;;;21.50;99.90;;;;;;5066945;28;20424;-78
2022/10/30 12:18:03;;;;;;;19.75;8.20;;;21.50;99.90;;;;;;5051777;28;20433;-79
2022/10/30 12:20:45;;;;;;;17.63;8.40;;;21.80;99.90;;;;;;5044461;28;20504;-80
2022/10/30 12:23:24;;;;;;;17.08;7.93;;;24.30;99.90;;;;;;5051776;28;20426;-80
2022/10/30 12:26:10;;;;;;;20.10;8.20;;;21.50;99.90;;;;;;5070363;28;20434;-80
2022/10/30 12:28:36;;;;;;;17.52;8.43;;;21.20;99.90;;;;;;5066326;28;20434;-80
2022/10/30 12:31:22;;;;;;;17.75;8.30;;;20.90;99.90;;;;;;5052718;28;20446;-79
2022/10/30 12:34:19;;;;;;;17.80;8.57;;;21.10;99.90;;;;;;5050807;28;20952;-80
2022/10/30 12:36:53;;;;;;;18.30;8.30;;;20.80;99.90;;;;;;5054809;28;20425;-80
2022/10/30 12:39:22;;;;;;;19.60;7.97;;;;;;;;;;5052871;28;20917;-80
2022/10/30 12:42:00;;;;;;;19.45;8.45;;;21.00;99.90;;;;;;5068597;28;20426;-80
2022/10/30 12:44:38;;;;;;;14.82;8.00;;;21.00;99.90;;;;;;5050260;28;20914;-80
2022/10/30 12:47:19;;;;;;;15.25;8.05;;;21.10;99.90;;;;;;5072252;28;20422;-81
2022/10/30 12:49:59;;;;;;;15.73;8.47;;;20.80;99.90;;;;;;5067657;28;20417;-80
2022/10/30 12:52:33;;;;;;;17.17;8.40;;;21.00;99.90;;;;;;5071888;28;20426;-76
2022/10/30 12:55:21;;;;;;;17.77;8.40;;;21.00;99.90;;;;;;5048834;28;20410;-78
2022/10/30 12:58:06;;;;;;;15.13;8.57;;;21.20;99.90;;;;;;5058543;28;20421;-79
2022/10/30 13:00:40;;;;;;;17.45;8.77;;;21.30;99.90;;;;;;5053208;28;20432;-79
2022/10/30 13:03:17;;;;;;;20.27;8.50;;;21.50;99.90;;;;;;5055099;28;20425;-79
2022/10/30 13:05:56;;;;;;;18.52;9.18;;;21.50;99.90;;;;;;5066394;28;20425;-79
2022/10/30 13:08:27;;;;;;;21.80;8.93;;;21.40;99.90;;;;;;5053717;28;20956;-79
2022/10/30 13:11:16;;;;;;;16.98;8.00;;;21.50;99.90;;;;;;5053498;28;20454;-79
2022/10/30 13:13:48;;;;;;;20.52;9.15;;;21.20;99.90;;;;;;5042579;28;20401;-79
2022/10/30 13:16:30;;;;;;;20.88;8.55;;;21.30;99.90;;;;;;5050842;28;20424;-79
2022/10/30 13:19:00;;;;;;;16.10;7.82;;;21.10;99.90;;;;;;5045356;28;20469;-80
2022/10/30 13:21:31;;;;;;;18.73;8.00;;;21.60;99.90;;;;;;5082888;28;20437;-80
2022/10/30 13:24:10;;;;;;;16.73;7.53;;;21.20;99.90;;;;;;5062363;28;20884;-80
2022/10/30 13:27:06;;;;;;;17.73;7.60;;;21.30;99.90;;;;;;5070844;28;20991;-78
2022/10/30 13:29:47;;;;;;;18.60;8.07;;;21.30;99.90;;;;;;5073258;28;20501;-76
2022/10/30 13:32:44;;;;;;;14.95;7.90;;;21.20;99.90;;;;;;5056027;28;20410;-75
2022/10/30 13:35:19;;;;;;;14.35;8.13;;;21.10;99.90;;;;;;5068134;28;20425;-77
2022/10/30 13:38:04;;;;;;;18.73;7.78;;;;;;;;;;5071174;28;20905;-77
2022/10/30 13:41:03;;;;;;;19.23;7.80;;;21.30;99.90;;;;;;5055309;28;20533;-78
2022/10/30 13:43:44;;;;;;;15.95;7.80;;;21.30;99.90;;;;;;5058579;28;20498;-76
2022/10/30 13:46:25;;;;;;;16.80;7.70;;;21.10;99.90;;;;;;5064357;28;20489;-76
2022/10/30 13:49:09;;;;;;;13.82;7.43;;;21.10;99.90;;;;;;5072066;28;20414;-76
2022/10/30 13:51:47;;;;;;;18.38;7.47;;;21.00;99.90;;;;;;5071541;28;20414;-76
2022/10/30 13:54:21;;;;;;;15.70;7.80;;;20.90;99.90;;;;;;5072762;28;20418;-77
2022/10/30 13:56:48;;;;;;;17.45;7.72;;;21.10;99.90;;;;;;5053014;28;20428;-76
2022/10/30 13:59:23;;;;;;;18.05;7.97;;;21.00;99.90;;;;;;5072882;28;20464;-77
2022/10/30 14:01:54;;;;;;;18.15;8.02;;;21.00;99.90;;;;;;5054999;28;20901;-77
2022/10/30 14:04:36;;;;;;;17.40;7.17;;;21.10;99.90;;;;;;5044083;28;20475;-77
2022/10/30 14:07:14;;;;;;;17.13;7.55;;;21.20;99.90;;;;;;5069758;28;20429;-78
2022/10/30 14:09:43;;;;;;;16.65;8.02;;;21.00;99.90;;;;;;5075332;28;20402;-78
2022/10/30 14:12:46;;;;;;;17.75;7.97;;;21.50;99.90;;;;;;5055230;28;20437;-73
2022/10/30 14:15:39;;;;;;;19.70;8.18;;;;;;;;;;5069345;28;20410;-79
2022/10/30 14:18:10;;;;;;;16.83;8.15;;;21.00;99.90;;;;;;5050036;28;20457;-79
2022/10/30 14:20:46;;;;;;;16.53;8.20;;;21.50;99.90;;;;;;5066485;28;20446;-78
2022/10/30 14:23:24;;;;;;;16.75;7.53;;;21.40;99.90;;;;;;5069345;28;20497;-78
2022/10/30 14:26:14;;;;;;;17.05;7.60;;;20.90;99.90;;;;;;5073166;28;20422;-78
2022/10/30 14:28:43;;;;;;;17.27;6.90;;;21.00;99.90;;;;;;5061546;28;20402;-75
2022/10/30 14:31:17;;;;;;;15.88;7.20;;;21.00;99.90;;;;;;5054437;28;20414;-77
2022/10/30 14:33:47;;;;;;;15.88;7.10;;;20.70;99.90;;;;;;5072590;28;20412;-78
2022/10/30 14:36:20;;;;;;;13.47;7.70;;;20.60;99.90;;;;;;5055651;28;20410;-76
2022/10/30 14:38:59;;;;;;;14.10;7.18;;;20.50;99.90;;;;;;5071141;28;20406;-77
2022/10/30 14:41:52;;;;;;;16.20;7.50;;;20.30;99.90;;;;;;5057915;28;20414;-78
2022/10/30 14:44:37;;;;;;;14.50;7.03;;;;;;;;;;5068866;28;20422;-77